sensor_id;sensor_type;location;lat;lon;timestamp;P1;durP1;ratioP1;P2;durP2;ratioP2
7983;SDS011;4037;47.980;10.172;2024-03-25T00:04:35;4.70;;;2.37;;
7983;SDS011;4037;47.980;10.172;2024-03-25T00:07:01;1.90;;;1.80;;
7983;SDS011;4037;47.980;10.172;2024-03-25T00:09:28;5.77;;;2.47;;
7983;SDS011;4037;47.980;10.172;2024-03-25T00:11:54;2.97;;;2.30;;
7983;SDS011;4037;47.980;10.172;2024-03-25T00:14:20;2.77;;;2.43;;
7983;SDS011;4037;47.980;10.172;2024-03-25T00:16:46;2.47;;;2.27;;
7983;SDS011;4037;47.980;10.172;2024-03-25T00:19:12;2.77;;;2.40;;
7983;SDS011;4037;47.980;10.172;2024-03-25T00:21:38;2.40;;;2.20;;
7983;SDS011;4037;47.980;10.172;2024-03-25T00:24:04;3.20;;;2.77;;
7983;SDS011;4037;47.980;10.172;2024-03-25T00:26:30;5.37;;;2.50;;
7983;SDS011;4037;47.980;10.172;2024-03-25T00:28:57;3.50;;;2.20;;
7983;SDS011;4037;47.980;10.172;2024-03-25T00:31:23;4.23;;;2.33;;
7983;SDS011;4037;47.980;10.172;2024-03-25T00:33:49;5.20;;;2.83;;
7983;SDS011;4037;47.980;10.172;2024-03-25T00:36:15;6.33;;;2.60;;
7983;SDS011;4037;47.980;10.172;2024-03-25T00:38:41;3.87;;;2.70;;
7983;SDS011;4037;47.980;10.172;2024-03-25T00:41:08;4.80;;;3.13;;
7983;SDS011;4037;47.980;10.172;2024-03-25T00:43:34;2.80;;;2.60;;
7983;SDS011;4037;47.980;10.172;2024-03-25T00:46:00;4.37;;;2.70;;
7983;SDS011;4037;47.980;10.172;2024-03-25T00:48:26;4.70;;;3.30;;
7983;SDS011;4037;47.980;10.172;2024-03-25T00:50:52;2.73;;;2.53;;
7983;SDS011;4037;47.980;10.172;2024-03-25T00:53:18;5.17;;;2.73;;
7983;SDS011;4037;47.980;10.172;2024-03-25T00:55:44;3.03;;;2.70;;
7983;SDS011;4037;47.980;10.172;2024-03-25T00:58:11;3.30;;;3.00;;
7983;SDS011;4037;47.980;10.172;2024-03-25T01:00:37;2.90;;;2.70;;
7983;SDS011;4037;47.980;10.172;2024-03-25T01:03:03;3.40;;;3.10;;
7983;SDS011;4037;47.980;10.172;2024-03-25T01:05:29;3.23;;;2.53;;
7983;SDS011;4037;47.980;10.172;2024-03-25T01:07:55;3.93;;;2.97;;
7983;SDS011;4037;47.980;10.172;2024-03-25T01:10:21;3.47;;;2.40;;
7983;SDS011;4037;47.980;10.172;2024-03-25T01:12:47;2.83;;;2.20;;
7983;SDS011;4037;47.980;10.172;2024-03-25T01:15:13;3.87;;;2.60;;
7983;SDS011;4037;47.980;10.172;2024-03-25T01:17:39;3.00;;;2.70;;
7983;SDS011;4037;47.980;10.172;2024-03-25T01:20:05;5.47;;;2.80;;
7983;SDS011;4037;47.980;10.172;2024-03-25T01:22:31;3.20;;;2.67;;
7983;SDS011;4037;47.980;10.172;2024-03-25T01:24:57;4.00;;;2.23;;
7983;SDS011;4037;47.980;10.172;2024-03-25T01:27:23;3.73;;;2.47;;
7983;SDS011;4037;47.980;10.172;2024-03-25T01:29:49;2.90;;;2.50;;
7983;SDS011;4037;47.980;10.172;2024-03-25T01:32:15;2.53;;;2.33;;
7983;SDS011;4037;47.980;10.172;2024-03-25T01:34:41;2.53;;;2.37;;
7983;SDS011;4037;47.980;10.172;2024-03-25T01:37:07;3.07;;;2.57;;
7983;SDS011;4037;47.980;10.172;2024-03-25T01:39:33;3.60;;;2.17;;
7983;SDS011;4037;47.980;10.172;2024-03-25T01:41:59;2.73;;;2.50;;
7983;SDS011;4037;47.980;10.172;2024-03-25T01:44:25;3.33;;;2.07;;
7983;SDS011;4037;47.980;10.172;2024-03-25T01:46:51;4.07;;;2.50;;
7983;SDS011;4037;47.980;10.172;2024-03-25T01:49:17;3.60;;;2.47;;
7983;SDS011;4037;47.980;10.172;2024-03-25T01:51:44;5.17;;;2.83;;
7983;SDS011;4037;47.980;10.172;2024-03-25T01:54:10;3.13;;;2.53;;
7983;SDS011;4037;47.980;10.172;2024-03-25T01:56:39;2.40;;;2.20;;
7983;SDS011;4037;47.980;10.172;2024-03-25T01:59:07;2.67;;;2.47;;
7983;SDS011;4037;47.980;10.172;2024-03-25T02:01:33;4.10;;;2.70;;
7983;SDS011;4037;47.980;10.172;2024-03-25T02:03:59;3.53;;;2.43;;
7983;SDS011;4037;47.980;10.172;2024-03-25T02:06:25;2.90;;;2.50;;
7983;SDS011;4037;47.980;10.172;2024-03-25T02:08:53;3.13;;;2.40;;
7983;SDS011;4037;47.980;10.172;2024-03-25T02:11:20;3.77;;;2.80;;
7983;SDS011;4037;47.980;10.172;2024-03-25T02:13:46;2.63;;;2.40;;
7983;SDS011;4037;47.980;10.172;2024-03-25T02:16:12;4.87;;;2.90;;
7983;SDS011;4037;47.980;10.172;2024-03-25T02:18:38;4.77;;;2.70;;
7983;SDS011;4037;47.980;10.172;2024-03-25T02:21:04;2.43;;;2.20;;
7983;SDS011;4037;47.980;10.172;2024-03-25T02:23:30;3.43;;;2.70;;
7983;SDS011;4037;47.980;10.172;2024-03-25T02:25:59;2.93;;;2.40;;
7983;SDS011;4037;47.980;10.172;2024-03-25T02:28:25;2.37;;;2.17;;
7983;SDS011;4037;47.980;10.172;2024-03-25T02:30:51;2.80;;;2.60;;
7983;SDS011;4037;47.980;10.172;2024-03-25T02:33:17;2.90;;;2.50;;
7983;SDS011;4037;47.980;10.172;2024-03-25T02:35:43;4.20;;;2.93;;
7983;SDS011;4037;47.980;10.172;2024-03-25T02:38:09;4.23;;;2.40;;
7983;SDS011;4037;47.980;10.172;2024-03-25T02:40:35;4.33;;;2.60;;
7983;SDS011;4037;47.980;10.172;2024-03-25T02:43:01;3.43;;;2.77;;
7983;SDS011;4037;47.980;10.172;2024-03-25T02:45:27;5.87;;;2.90;;
7983;SDS011;4037;47.980;10.172;2024-03-25T02:47:55;3.30;;;2.93;;
7983;SDS011;4037;47.980;10.172;2024-03-25T02:50:21;5.80;;;2.87;;
7983;SDS011;4037;47.980;10.172;2024-03-25T02:52:47;3.57;;;3.17;;
7983;SDS011;4037;47.980;10.172;2024-03-25T02:55:13;3.23;;;2.87;;
7983;SDS011;4037;47.980;10.172;2024-03-25T02:57:39;7.23;;;2.90;;
7983;SDS011;4037;47.980;10.172;2024-03-25T03:00:05;3.83;;;2.93;;
7983;SDS011;4037;47.980;10.172;2024-03-25T03:02:31;3.23;;;2.70;;
7983;SDS011;4037;47.980;10.172;2024-03-25T03:04:57;4.00;;;2.70;;
7983;SDS011;4037;47.980;10.172;2024-03-25T03:07:24;4.43;;;2.80;;
7983;SDS011;4037;47.980;10.172;2024-03-25T03:09:50;3.27;;;2.77;;
7983;SDS011;4037;47.980;10.172;2024-03-25T03:12:16;4.73;;;2.87;;
7983;SDS011;4037;47.980;10.172;2024-03-25T03:14:42;7.23;;;2.80;;
7983;SDS011;4037;47.980;10.172;2024-03-25T03:17:08;2.80;;;2.60;;
7983;SDS011;4037;47.980;10.172;2024-03-25T03:19:34;6.23;;;2.70;;
7983;SDS011;4037;47.980;10.172;2024-03-25T03:22:00;3.13;;;2.60;;
7983;SDS011;4037;47.980;10.172;2024-03-25T03:24:27;2.80;;;2.47;;
7983;SDS011;4037;47.980;10.172;2024-03-25T03:26:53;4.83;;;3.17;;
7983;SDS011;4037;47.980;10.172;2024-03-25T03:29:19;3.23;;;2.87;;
7983;SDS011;4037;47.980;10.172;2024-03-25T03:31:45;3.60;;;2.77;;
7983;SDS011;4037;47.980;10.172;2024-03-25T03:34:11;4.13;;;2.57;;
7983;SDS011;4037;47.980;10.172;2024-03-25T03:36:37;3.17;;;2.60;;
7983;SDS011;4037;47.980;10.172;2024-03-25T03:39:03;3.13;;;2.80;;
7983;SDS011;4037;47.980;10.172;2024-03-25T03:41:29;4.23;;;2.80;;
7983;SDS011;4037;47.980;10.172;2024-03-25T03:43:55;3.00;;;2.60;;
7983;SDS011;4037;47.980;10.172;2024-03-25T03:46:21;3.33;;;2.70;;
7983;SDS011;4037;47.980;10.172;2024-03-25T03:48:47;3.63;;;3.20;;
7983;SDS011;4037;47.980;10.172;2024-03-25T03:51:13;2.80;;;2.60;;
7983;SDS011;4037;47.980;10.172;2024-03-25T03:53:39;2.60;;;2.40;;
7983;SDS011;4037;47.980;10.172;2024-03-25T03:56:05;4.90;;;3.40;;
7983;SDS011;4037;47.980;10.172;2024-03-25T03:58:31;4.17;;;2.53;;
7983;SDS011;4037;47.980;10.172;2024-03-25T04:00:58;3.43;;;2.57;;
7983;SDS011;4037;47.980;10.172;2024-03-25T04:03:24;3.20;;;2.90;;
7983;SDS011;4037;47.980;10.172;2024-03-25T04:05:50;2.63;;;2.43;;
7983;SDS011;4037;47.980;10.172;2024-03-25T04:08:16;4.17;;;2.63;;
7983;SDS011;4037;47.980;10.172;2024-03-25T04:10:43;3.93;;;3.00;;
7983;SDS011;4037;47.980;10.172;2024-03-25T04:13:09;3.30;;;3.00;;
7983;SDS011;4037;47.980;10.172;2024-03-25T04:15:36;6.03;;;3.67;;
7983;SDS011;4037;47.980;10.172;2024-03-25T04:18:02;4.50;;;2.97;;
7983;SDS011;4037;47.980;10.172;2024-03-25T04:20:29;3.97;;;3.07;;
7983;SDS011;4037;47.980;10.172;2024-03-25T04:22:55;4.37;;;3.43;;
7983;SDS011;4037;47.980;10.172;2024-03-25T04:25:21;3.83;;;3.30;;
7983;SDS011;4037;47.980;10.172;2024-03-25T04:27:47;5.07;;;3.10;;
7983;SDS011;4037;47.980;10.172;2024-03-25T04:30:13;5.03;;;2.80;;
7983;SDS011;4037;47.980;10.172;2024-03-25T04:32:39;5.43;;;3.00;;
7983;SDS011;4037;47.980;10.172;2024-03-25T04:35:06;4.03;;;3.57;;
7983;SDS011;4037;47.980;10.172;2024-03-25T04:37:32;4.90;;;2.90;;
7983;SDS011;4037;47.980;10.172;2024-03-25T04:39:59;3.90;;;3.20;;
7983;SDS011;4037;47.980;10.172;2024-03-25T04:42:25;4.93;;;3.20;;
7983;SDS011;4037;47.980;10.172;2024-03-25T04:44:51;3.00;;;2.70;;
7983;SDS011;4037;47.980;10.172;2024-03-25T04:47:17;5.23;;;2.80;;
7983;SDS011;4037;47.980;10.172;2024-03-25T04:49:44;3.43;;;2.50;;
7983;SDS011;4037;47.980;10.172;2024-03-25T04:52:12;5.23;;;3.40;;
7983;SDS011;4037;47.980;10.172;2024-03-25T04:54:43;3.93;;;3.27;;
7983;SDS011;4037;47.980;10.172;2024-03-25T04:57:09;6.47;;;3.57;;
7983;SDS011;4037;47.980;10.172;2024-03-25T04:59:35;3.93;;;3.40;;
7983;SDS011;4037;47.980;10.172;2024-03-25T05:02:01;3.80;;;2.83;;
7983;SDS011;4037;47.980;10.172;2024-03-25T05:04:27;3.73;;;3.10;;
7983;SDS011;4037;47.980;10.172;2024-03-25T05:06:53;4.40;;;2.77;;
7983;SDS011;4037;47.980;10.172;2024-03-25T05:09:19;3.80;;;3.10;;
7983;SDS011;4037;47.980;10.172;2024-03-25T05:11:45;5.70;;;3.20;;
7983;SDS011;4037;47.980;10.172;2024-03-25T05:14:11;4.23;;;3.03;;
7983;SDS011;4037;47.980;10.172;2024-03-25T05:16:37;3.30;;;3.00;;
7983;SDS011;4037;47.980;10.172;2024-03-25T05:19:04;3.33;;;2.80;;
7983;SDS011;4037;47.980;10.172;2024-03-25T05:21:30;5.87;;;3.07;;
7983;SDS011;4037;47.980;10.172;2024-03-25T05:23:56;4.13;;;3.40;;
7983;SDS011;4037;47.980;10.172;2024-03-25T05:26:22;4.23;;;3.47;;
7983;SDS011;4037;47.980;10.172;2024-03-25T05:28:54;4.20;;;3.07;;
7983;SDS011;4037;47.980;10.172;2024-03-25T05:31:20;3.43;;;3.13;;
7983;SDS011;4037;47.980;10.172;2024-03-25T05:33:47;4.17;;;3.07;;
7983;SDS011;4037;47.980;10.172;2024-03-25T05:36:13;3.87;;;3.00;;
7983;SDS011;4037;47.980;10.172;2024-03-25T05:38:39;3.10;;;2.80;;
7983;SDS011;4037;47.980;10.172;2024-03-25T05:41:07;4.67;;;3.23;;
7983;SDS011;4037;47.980;10.172;2024-03-25T05:43:33;3.37;;;3.07;;
7983;SDS011;4037;47.980;10.172;2024-03-25T05:45:59;4.60;;;2.93;;
7983;SDS011;4037;47.980;10.172;2024-03-25T05:48:25;3.47;;;3.27;;
7983;SDS011;4037;47.980;10.172;2024-03-25T05:50:58;5.00;;;3.90;;
7983;SDS011;4037;47.980;10.172;2024-03-25T05:53:25;3.57;;;3.13;;
7983;SDS011;4037;47.980;10.172;2024-03-25T05:55:50;3.60;;;2.67;;
7983;SDS011;4037;47.980;10.172;2024-03-25T05:58:16;4.73;;;3.03;;
7983;SDS011;4037;47.980;10.172;2024-03-25T06:00:42;4.60;;;3.63;;
7983;SDS011;4037;47.980;10.172;2024-03-25T06:03:08;6.90;;;3.00;;
7983;SDS011;4037;47.980;10.172;2024-03-25T06:05:34;3.73;;;3.40;;
7983;SDS011;4037;47.980;10.172;2024-03-25T06:08:01;3.67;;;2.47;;
7983;SDS011;4037;47.980;10.172;2024-03-25T06:10:27;4.57;;;3.33;;
7983;SDS011;4037;47.980;10.172;2024-03-25T06:12:54;4.67;;;2.90;;
7983;SDS011;4037;47.980;10.172;2024-03-25T06:15:20;3.47;;;2.93;;
7983;SDS011;4037;47.980;10.172;2024-03-25T06:17:46;5.77;;;2.93;;
7983;SDS011;4037;47.980;10.172;2024-03-25T06:20:12;6.87;;;3.17;;
7983;SDS011;4037;47.980;10.172;2024-03-25T06:22:38;3.90;;;3.30;;
7983;SDS011;4037;47.980;10.172;2024-03-25T06:25:04;5.00;;;3.30;;
7983;SDS011;4037;47.980;10.172;2024-03-25T06:27:30;3.87;;;2.70;;
7983;SDS011;4037;47.980;10.172;2024-03-25T06:29:57;5.90;;;3.50;;
7983;SDS011;4037;47.980;10.172;2024-03-25T06:32:42;3.13;;;2.60;;
7983;SDS011;4037;47.980;10.172;2024-03-25T06:35:27;4.33;;;2.83;;
7983;SDS011;4037;47.980;10.172;2024-03-25T06:37:53;5.80;;;3.37;;
7983;SDS011;4037;47.980;10.172;2024-03-25T06:40:19;5.63;;;3.60;;
7983;SDS011;4037;47.980;10.172;2024-03-25T06:42:47;2.87;;;2.57;;
7983;SDS011;4037;47.980;10.172;2024-03-25T06:45:13;3.97;;;2.93;;
7983;SDS011;4037;47.980;10.172;2024-03-25T06:47:41;4.53;;;3.07;;
7983;SDS011;4037;47.980;10.172;2024-03-25T06:50:07;3.53;;;2.97;;
7983;SDS011;4037;47.980;10.172;2024-03-25T06:52:33;2.90;;;2.60;;
7983;SDS011;4037;47.980;10.172;2024-03-25T06:54:59;4.63;;;3.10;;
7983;SDS011;4037;47.980;10.172;2024-03-25T06:57:25;3.50;;;3.07;;
7983;SDS011;4037;47.980;10.172;2024-03-25T06:59:51;3.20;;;2.90;;
7983;SDS011;4037;47.980;10.172;2024-03-25T07:02:17;5.57;;;2.67;;
7983;SDS011;4037;47.980;10.172;2024-03-25T07:04:43;4.93;;;3.30;;
7983;SDS011;4037;47.980;10.172;2024-03-25T07:07:09;5.43;;;2.70;;
7983;SDS011;4037;47.980;10.172;2024-03-25T07:09:35;3.57;;;3.20;;
7983;SDS011;4037;47.980;10.172;2024-03-25T07:12:01;7.40;;;3.37;;
7983;SDS011;4037;47.980;10.172;2024-03-25T07:14:28;4.70;;;2.70;;
7983;SDS011;4037;47.980;10.172;2024-03-25T07:16:54;4.63;;;2.90;;
7983;SDS011;4037;47.980;10.172;2024-03-25T07:19:20;2.70;;;2.33;;
7983;SDS011;4037;47.980;10.172;2024-03-25T07:21:47;3.67;;;3.20;;
7983;SDS011;4037;47.980;10.172;2024-03-25T07:24:13;4.57;;;2.67;;
7983;SDS011;4037;47.980;10.172;2024-03-25T07:26:39;5.77;;;3.03;;
7983;SDS011;4037;47.980;10.172;2024-03-25T07:29:05;7.80;;;3.10;;
7983;SDS011;4037;47.980;10.172;2024-03-25T07:31:32;2.67;;;2.40;;
7983;SDS011;4037;47.980;10.172;2024-03-25T07:33:58;7.63;;;3.23;;
7983;SDS011;4037;47.980;10.172;2024-03-25T07:36:24;2.90;;;2.70;;
7983;SDS011;4037;47.980;10.172;2024-03-25T07:38:58;7.17;;;3.00;;
7983;SDS011;4037;47.980;10.172;2024-03-25T07:41:24;3.53;;;3.23;;
7983;SDS011;4037;47.980;10.172;2024-03-25T07:43:50;4.47;;;2.87;;
7983;SDS011;4037;47.980;10.172;2024-03-25T07:46:16;2.40;;;2.20;;
7983;SDS011;4037;47.980;10.172;2024-03-25T07:48:42;2.37;;;2.17;;
7983;SDS011;4037;47.980;10.172;2024-03-25T07:51:08;2.40;;;2.20;;
7983;SDS011;4037;47.980;10.172;2024-03-25T07:53:34;2.23;;;2.03;;
7983;SDS011;4037;47.980;10.172;2024-03-25T07:56:00;3.77;;;2.30;;
7983;SDS011;4037;47.980;10.172;2024-03-25T07:58:26;2.40;;;2.17;;
7983;SDS011;4037;47.980;10.172;2024-03-25T08:00:52;2.60;;;2.37;;
7983;SDS011;4037;47.980;10.172;2024-03-25T08:03:18;3.97;;;2.63;;
7983;SDS011;4037;47.980;10.172;2024-03-25T08:05:44;5.73;;;2.63;;
7983;SDS011;4037;47.980;10.172;2024-03-25T08:08:10;5.77;;;2.23;;
7983;SDS011;4037;47.980;10.172;2024-03-25T08:10:36;3.37;;;2.60;;
7983;SDS011;4037;47.980;10.172;2024-03-25T08:13:02;3.87;;;2.40;;
7983;SDS011;4037;47.980;10.172;2024-03-25T08:15:29;4.90;;;2.67;;
7983;SDS011;4037;47.980;10.172;2024-03-25T08:17:55;2.40;;;2.00;;
7983;SDS011;4037;47.980;10.172;2024-03-25T08:20:21;2.80;;;2.00;;
7983;SDS011;4037;47.980;10.172;2024-03-25T08:22:48;4.43;;;2.97;;
7983;SDS011;4037;47.980;10.172;2024-03-25T08:25:14;2.70;;;2.00;;
7983;SDS011;4037;47.980;10.172;2024-03-25T08:27:40;2.77;;;1.73;;
7983;SDS011;4037;47.980;10.172;2024-03-25T08:30:06;4.40;;;2.37;;
7983;SDS011;4037;47.980;10.172;2024-03-25T08:32:32;3.30;;;2.10;;
7983;SDS011;4037;47.980;10.172;2024-03-25T08:34:58;3.60;;;2.10;;
7983;SDS011;4037;47.980;10.172;2024-03-25T08:37:24;2.10;;;1.90;;
7983;SDS011;4037;47.980;10.172;2024-03-25T08:39:50;3.20;;;1.77;;
7983;SDS011;4037;47.980;10.172;2024-03-25T08:42:16;2.37;;;1.43;;
7983;SDS011;4037;47.980;10.172;2024-03-25T08:44:42;5.53;;;2.10;;
7983;SDS011;4037;47.980;10.172;2024-03-25T08:47:08;2.27;;;1.87;;
7983;SDS011;4037;47.980;10.172;2024-03-25T08:49:34;4.33;;;2.10;;
7983;SDS011;4037;47.980;10.172;2024-03-25T08:52:00;2.90;;;2.03;;
7983;SDS011;4037;47.980;10.172;2024-03-25T08:54:26;3.93;;;1.80;;
7983;SDS011;4037;47.980;10.172;2024-03-25T08:56:52;4.07;;;2.10;;
7983;SDS011;4037;47.980;10.172;2024-03-25T08:59:18;2.00;;;1.80;;
7983;SDS011;4037;47.980;10.172;2024-03-25T09:01:44;3.30;;;2.07;;
7983;SDS011;4037;47.980;10.172;2024-03-25T09:04:10;2.20;;;2.00;;
7983;SDS011;4037;47.980;10.172;2024-03-25T09:06:36;3.03;;;1.63;;
7983;SDS011;4037;47.980;10.172;2024-03-25T09:09:03;2.07;;;1.77;;
7983;SDS011;4037;47.980;10.172;2024-03-25T09:11:58;4.30;;;2.00;;
7983;SDS011;4037;47.980;10.172;2024-03-25T09:14:24;2.83;;;1.80;;
7983;SDS011;4037;47.980;10.172;2024-03-25T09:16:50;2.97;;;1.77;;
7983;SDS011;4037;47.980;10.172;2024-03-25T09:19:16;2.57;;;2.00;;
7983;SDS011;4037;47.980;10.172;2024-03-25T09:21:42;4.17;;;2.00;;
7983;SDS011;4037;47.980;10.172;2024-03-25T09:24:08;2.80;;;1.60;;
7983;SDS011;4037;47.980;10.172;2024-03-25T09:26:34;3.43;;;2.27;;
7983;SDS011;4037;47.980;10.172;2024-03-25T09:29:00;3.50;;;1.80;;
7983;SDS011;4037;47.980;10.172;2024-03-25T09:31:28;2.00;;;1.90;;
7983;SDS011;4037;47.980;10.172;2024-03-25T09:33:54;2.40;;;1.80;;
7983;SDS011;4037;47.980;10.172;2024-03-25T09:36:20;1.90;;;1.60;;
7983;SDS011;4037;47.980;10.172;2024-03-25T09:38:46;1.63;;;1.53;;
7983;SDS011;4037;47.980;10.172;2024-03-25T09:41:12;2.73;;;2.40;;
7983;SDS011;4037;47.980;10.172;2024-03-25T09:43:44;2.07;;;1.67;;
7983;SDS011;4037;47.980;10.172;2024-03-25T09:46:15;2.50;;;1.60;;
7983;SDS011;4037;47.980;10.172;2024-03-25T09:48:42;7.97;;;2.13;;
7983;SDS011;4037;47.980;10.172;2024-03-25T09:51:09;2.30;;;1.60;;
7983;SDS011;4037;47.980;10.172;2024-03-25T09:53:35;3.93;;;1.90;;
7983;SDS011;4037;47.980;10.172;2024-03-25T09:56:01;4.00;;;2.40;;
7983;SDS011;4037;47.980;10.172;2024-03-25T09:58:28;4.63;;;1.43;;
7983;SDS011;4037;47.980;10.172;2024-03-25T10:00:54;2.20;;;1.60;;
7983;SDS011;4037;47.980;10.172;2024-03-25T10:03:21;2.70;;;1.63;;
7983;SDS011;4037;47.980;10.172;2024-03-25T10:05:47;4.30;;;1.77;;
7983;SDS011;4037;47.980;10.172;2024-03-25T10:08:13;3.30;;;1.37;;
7983;SDS011;4037;47.980;10.172;2024-03-25T10:10:39;2.97;;;1.90;;
7983;SDS011;4037;47.980;10.172;2024-03-25T10:13:05;3.10;;;1.60;;
7983;SDS011;4037;47.980;10.172;2024-03-25T10:15:32;1.87;;;1.50;;
7983;SDS011;4037;47.980;10.172;2024-03-25T10:17:58;2.10;;;1.67;;
7983;SDS011;4037;47.980;10.172;2024-03-25T10:20:24;2.20;;;1.40;;
7983;SDS011;4037;47.980;10.172;2024-03-25T10:22:50;1.50;;;1.30;;
7983;SDS011;4037;47.980;10.172;2024-03-25T10:25:29;1.90;;;1.57;;
7983;SDS011;4037;47.980;10.172;2024-03-25T10:27:59;1.20;;;1.10;;
7983;SDS011;4037;47.980;10.172;2024-03-25T10:30:25;2.53;;;1.20;;
7983;SDS011;4037;47.980;10.172;2024-03-25T10:32:58;1.90;;;1.33;;
7983;SDS011;4037;47.980;10.172;2024-03-25T10:35:25;1.60;;;1.50;;
7983;SDS011;4037;47.980;10.172;2024-03-25T10:37:52;2.13;;;1.27;;
7983;SDS011;4037;47.980;10.172;2024-03-25T10:40:19;2.07;;;1.20;;
7983;SDS011;4037;47.980;10.172;2024-03-25T10:42:46;1.90;;;1.40;;
7983;SDS011;4037;47.980;10.172;2024-03-25T10:45:13;2.77;;;1.40;;
7983;SDS011;4037;47.980;10.172;2024-03-25T10:47:39;2.43;;;1.40;;
7983;SDS011;4037;47.980;10.172;2024-03-25T10:50:07;1.50;;;1.37;;
7983;SDS011;4037;47.980;10.172;2024-03-25T10:52:34;3.00;;;1.63;;
7983;SDS011;4037;47.980;10.172;2024-03-25T10:55:01;1.93;;;1.30;;
7983;SDS011;4037;47.980;10.172;2024-03-25T10:57:28;2.03;;;1.50;;
7983;SDS011;4037;47.980;10.172;2024-03-25T10:59:54;1.93;;;1.40;;
7983;SDS011;4037;47.980;10.172;2024-03-25T11:02:21;1.60;;;1.40;;
7983;SDS011;4037;47.980;10.172;2024-03-25T11:04:47;2.27;;;1.73;;
7983;SDS011;4037;47.980;10.172;2024-03-25T11:07:16;1.93;;;1.77;;
7983;SDS011;4037;47.980;10.172;2024-03-25T11:09:42;1.60;;;1.30;;
7983;SDS011;4037;47.980;10.172;2024-03-25T11:12:12;3.80;;;1.87;;
7983;SDS011;4037;47.980;10.172;2024-03-25T11:14:38;1.37;;;1.17;;
7983;SDS011;4037;47.980;10.172;2024-03-25T11:17:14;1.87;;;1.17;;
7983;SDS011;4037;47.980;10.172;2024-03-25T11:19:43;3.13;;;1.50;;
7983;SDS011;4037;47.980;10.172;2024-03-25T11:22:10;1.47;;;1.37;;
7983;SDS011;4037;47.980;10.172;2024-03-25T11:24:36;2.13;;;1.30;;
7983;SDS011;4037;47.980;10.172;2024-03-25T11:27:05;4.90;;;2.70;;
7983;SDS011;4037;47.980;10.172;2024-03-25T11:29:31;4.23;;;1.50;;
7983;SDS011;4037;47.980;10.172;2024-03-25T11:31:58;2.67;;;1.47;;
7983;SDS011;4037;47.980;10.172;2024-03-25T11:34:25;2.77;;;1.30;;
7983;SDS011;4037;47.980;10.172;2024-03-25T11:36:51;2.60;;;1.20;;
7983;SDS011;4037;47.980;10.172;2024-03-25T11:39:21;1.77;;;1.47;;
7983;SDS011;4037;47.980;10.172;2024-03-25T11:41:47;1.50;;;1.27;;
7983;SDS011;4037;47.980;10.172;2024-03-25T11:44:13;2.40;;;1.53;;
7983;SDS011;4037;47.980;10.172;2024-03-25T11:46:40;2.17;;;1.40;;
7983;SDS011;4037;47.980;10.172;2024-03-25T11:49:06;1.77;;;1.40;;
7983;SDS011;4037;47.980;10.172;2024-03-25T11:51:34;2.40;;;1.30;;
7983;SDS011;4037;47.980;10.172;2024-03-25T11:54:03;1.70;;;1.20;;
7983;SDS011;4037;47.980;10.172;2024-03-25T11:56:29;1.60;;;1.30;;
7983;SDS011;4037;47.980;10.172;2024-03-25T11:58:56;2.30;;;1.37;;
7983;SDS011;4037;47.980;10.172;2024-03-25T12:01:22;3.23;;;1.20;;
7983;SDS011;4037;47.980;10.172;2024-03-25T12:03:48;2.30;;;1.30;;
7983;SDS011;4037;47.980;10.172;2024-03-25T12:06:14;1.87;;;1.40;;
7983;SDS011;4037;47.980;10.172;2024-03-25T12:08:40;1.80;;;1.10;;
7983;SDS011;4037;47.980;10.172;2024-03-25T12:11:26;1.57;;;1.13;;
7983;SDS011;4037;47.980;10.172;2024-03-25T12:13:51;1.57;;;1.00;;
7983;SDS011;4037;47.980;10.172;2024-03-25T12:16:18;1.10;;;1.00;;
7983;SDS011;4037;47.980;10.172;2024-03-25T12:18:44;1.27;;;1.10;;
7983;SDS011;4037;47.980;10.172;2024-03-25T12:21:10;1.30;;;1.13;;
7983;SDS011;4037;47.980;10.172;2024-03-25T12:23:36;1.20;;;1.10;;
7983;SDS011;4037;47.980;10.172;2024-03-25T12:26:03;1.30;;;1.20;;
7983;SDS011;4037;47.980;10.172;2024-03-25T12:28:32;2.60;;;1.30;;
7983;SDS011;4037;47.980;10.172;2024-03-25T12:31:02;2.40;;;1.20;;
7983;SDS011;4037;47.980;10.172;2024-03-25T12:33:42;1.17;;;1.00;;
7983;SDS011;4037;47.980;10.172;2024-03-25T12:36:09;1.93;;;1.00;;
7983;SDS011;4037;47.980;10.172;2024-03-25T12:38:35;1.40;;;1.10;;
7983;SDS011;4037;47.980;10.172;2024-03-25T12:41:04;1.20;;;1.10;;
7983;SDS011;4037;47.980;10.172;2024-03-25T12:43:34;3.67;;;1.20;;
7983;SDS011;4037;47.980;10.172;2024-03-25T12:46:00;2.30;;;1.03;;
7983;SDS011;4037;47.980;10.172;2024-03-25T12:48:28;1.10;;;0.90;;
7983;SDS011;4037;47.980;10.172;2024-03-25T12:50:54;1.73;;;0.87;;
7983;SDS011;4037;47.980;10.172;2024-03-25T12:53:20;1.03;;;0.97;;
7983;SDS011;4037;47.980;10.172;2024-03-25T12:55:46;2.37;;;0.93;;
7983;SDS011;4037;47.980;10.172;2024-03-25T12:58:12;1.57;;;0.90;;
7983;SDS011;4037;47.980;10.172;2024-03-25T13:00:38;2.33;;;1.50;;
7983;SDS011;4037;47.980;10.172;2024-03-25T13:03:05;1.20;;;1.10;;
7983;SDS011;4037;47.980;10.172;2024-03-25T13:05:33;2.03;;;1.10;;
7983;SDS011;4037;47.980;10.172;2024-03-25T13:07:59;1.20;;;1.10;;
7983;SDS011;4037;47.980;10.172;2024-03-25T13:10:25;2.53;;;1.30;;
7983;SDS011;4037;47.980;10.172;2024-03-25T13:12:51;1.63;;;1.17;;
7983;SDS011;4037;47.980;10.172;2024-03-25T13:15:17;3.13;;;1.10;;
7983;SDS011;4037;47.980;10.172;2024-03-25T13:17:43;1.40;;;1.07;;
7983;SDS011;4037;47.980;10.172;2024-03-25T13:20:09;2.03;;;1.50;;
7983;SDS011;4037;47.980;10.172;2024-03-25T13:22:36;1.20;;;1.00;;
7983;SDS011;4037;47.980;10.172;2024-03-25T13:25:03;2.47;;;1.03;;
7983;SDS011;4037;47.980;10.172;2024-03-25T13:27:29;0.90;;;0.90;;
7983;SDS011;4037;47.980;10.172;2024-03-25T13:29:55;2.90;;;1.80;;
7983;SDS011;4037;47.980;10.172;2024-03-25T13:32:21;2.70;;;1.47;;
7983;SDS011;4037;47.980;10.172;2024-03-25T13:34:48;1.90;;;1.10;;
7983;SDS011;4037;47.980;10.172;2024-03-25T13:37:14;0.83;;;0.83;;
7983;SDS011;4037;47.980;10.172;2024-03-25T13:39:40;1.92;;;1.17;;
7983;SDS011;4037;47.980;10.172;2024-03-25T13:42:06;1.95;;;1.08;;
7983;SDS011;4037;47.980;10.172;2024-03-25T13:44:32;3.45;;;2.00;;
7983;SDS011;4037;47.980;10.172;2024-03-25T13:46:58;1.60;;;1.23;;
7983;SDS011;4037;47.980;10.172;2024-03-25T13:49:24;1.48;;;0.77;;
7983;SDS011;4037;47.980;10.172;2024-03-25T13:51:51;1.23;;;0.82;;
7983;SDS011;4037;47.980;10.172;2024-03-25T13:54:21;1.20;;;0.50;;
7983;SDS011;4037;47.980;10.172;2024-03-25T13:56:47;2.55;;;0.90;;
7983;SDS011;4037;47.980;10.172;2024-03-25T13:59:13;1.27;;;0.60;;
7983;SDS011;4037;47.980;10.172;2024-03-25T14:01:40;3.72;;;2.08;;
7983;SDS011;4037;47.980;10.172;2024-03-25T14:04:06;1.77;;;1.00;;
7983;SDS011;4037;47.980;10.172;2024-03-25T14:06:32;6.32;;;4.13;;
7983;SDS011;4037;47.980;10.172;2024-03-25T14:09:01;2.13;;;0.75;;
7983;SDS011;4037;47.980;10.172;2024-03-25T14:11:29;3.03;;;2.17;;
7983;SDS011;4037;47.980;10.172;2024-03-25T14:13:55;2.00;;;1.13;;
7983;SDS011;4037;47.980;10.172;2024-03-25T14:16:21;1.60;;;0.80;;
7983;SDS011;4037;47.980;10.172;2024-03-25T14:18:47;1.70;;;0.80;;
7983;SDS011;4037;47.980;10.172;2024-03-25T14:21:13;4.53;;;2.30;;
7983;SDS011;4037;47.980;10.172;2024-03-25T14:23:39;5.38;;;1.85;;
7983;SDS011;4037;47.980;10.172;2024-03-25T14:26:08;3.30;;;1.58;;
7983;SDS011;4037;47.980;10.172;2024-03-25T14:28:34;5.55;;;3.38;;
7983;SDS011;4037;47.980;10.172;2024-03-25T14:31:02;4.47;;;2.40;;
7983;SDS011;4037;47.980;10.172;2024-03-25T14:33:28;1.75;;;1.20;;
7983;SDS011;4037;47.980;10.172;2024-03-25T14:35:55;1.65;;;1.15;;
7983;SDS011;4037;47.980;10.172;2024-03-25T14:38:21;2.33;;;1.55;;
7983;SDS011;4037;47.980;10.172;2024-03-25T14:40:47;4.88;;;2.08;;
7983;SDS011;4037;47.980;10.172;2024-03-25T14:43:13;1.75;;;1.30;;
7983;SDS011;4037;47.980;10.172;2024-03-25T14:45:44;2.53;;;1.55;;
7983;SDS011;4037;47.980;10.172;2024-03-25T14:48:10;1.92;;;1.00;;
7983;SDS011;4037;47.980;10.172;2024-03-25T14:50:36;1.30;;;0.60;;
7983;SDS011;4037;47.980;10.172;2024-03-25T14:53:02;0.77;;;0.77;;
7983;SDS011;4037;47.980;10.172;2024-03-25T14:55:28;3.67;;;2.20;;
7983;SDS011;4037;47.980;10.172;2024-03-25T14:57:54;0.93;;;0.73;;
7983;SDS011;4037;47.980;10.172;2024-03-25T15:00:21;2.10;;;0.90;;